Station Historical Data
Daily Summary for July 11, 2017 Units:  Both    English   Metric
« Previous Day
Next Day »
Daily Weekly Monthly Yearly Custom
  High: Low: Average:
Temperature: 83.6 °F /  28.7 °C 65.1 °F /  18.4 °C 74 °F /  23.3 °C
Dew Point: 68.1 °F /  20.1 °C 62.1 °F /  16.7 °C 65.1 °F /  18.4 °C
Humidity: 91% 54% 75%
Wind Speed: 10.0mph /  16.1km/h - 2.3mph /  3.7km/h
Wind Gust: 13.0mph /  20.9km/h - -
Wind- - SW
Pressure: 29.91 in /  1012.8 hPa 29.86 in /  1011.1 hPa -
Precipitation: 0.00 in /  0 mm    
Historical Graphs
 
 
Tabular Data for July 11, 2017
Time Temperature Dew Point Pressure Wind Wind Speed Wind Gust Humidity Rainfall Rate (Hourly)
00:04 67.4 °F /  19.7 °C 64.7 °F /  18.2 °C 29.89in /  1012.1hPa SSW 1.0mph /  1.6km/h 3.0mph /  4.8km/h 91% 0.00in /  0mm
00:09 67.4 °F /  19.7 °C 64.7 °F /  18.2 °C 29.89in /  1012.1hPa SSW 3.0mph /  4.8km/h 4.0mph /  6.4km/h 91% 0.00in /  0mm
00:14 67.4 °F /  19.7 °C 64.7 °F /  18.2 °C 29.89in /  1012.1hPa Calm   5.0mph /  8km/h 91% 0.00in /  0mm
00:19 67.4 °F /  19.7 °C 64.4 °F /  18 °C 29.89in /  1012.1hPa South 1.0mph /  1.6km/h 6.0mph /  9.7km/h 90% 0.00in /  0mm
00:24 67.4 °F /  19.7 °C 64.7 °F /  18.2 °C 29.89in /  1012.1hPa SSW 2.0mph /  3.2km/h 4.0mph /  6.4km/h 91% 0.00in /  0mm
00:29 67.4 °F /  19.7 °C 64.4 °F /  18 °C 29.89in /  1012.1hPa SSW 2.0mph /  3.2km/h 5.0mph /  8km/h 90% 0.00in /  0mm
00:34 67.3 °F /  19.6 °C 64.3 °F /  17.9 °C 29.89in /  1012.1hPa SSW 1.0mph /  1.6km/h 5.0mph /  8km/h 90% 0.00in /  0mm
00:39 67.2 °F /  19.6 °C 64.2 °F /  17.9 °C 29.89in /  1012.1hPa Calm     90% 0.00in /  0mm
00:44 67.2 °F /  19.6 °C 64.5 °F /  18.1 °C 29.89in /  1012.1hPa Calm   4.0mph /  6.4km/h 91% 0.00in /  0mm
00:49 67.1 °F /  19.5 °C 64.4 °F /  18 °C 29.89in /  1012.1hPa WSW 3.0mph /  4.8km/h 4.0mph /  6.4km/h 91% 0.00in /  0mm
00:54 67.4 °F /  19.7 °C 64.7 °F /  18.2 °C 29.89in /  1012.1hPa West 5.0mph /  8km/h 6.0mph /  9.7km/h 91% 0.00in /  0mm
00:59 67.4 °F /  19.7 °C 64.7 °F /  18.2 °C 29.89in /  1012.1hPa SW 4.0mph /  6.4km/h 7.0mph /  11.3km/h 91% 0.00in /  0mm
01:04 67.6 °F /  19.8 °C 64.6 °F /  18.1 °C 29.89in /  1012.1hPa WSW 3.0mph /  4.8km/h 11.0mph /  17.7km/h 90% 0.00in /  0mm
01:09 67.8 °F /  19.9 °C 64.8 °F /  18.2 °C 29.89in /  1012.1hPa WSW 3.0mph /  4.8km/h 12.0mph /  19.3km/h 90% 0.00in /  0mm
01:14 68.0 °F /  20 °C 64.6 °F /  18.1 °C 29.88in /  1011.7hPa WSW 4.0mph /  6.4km/h 7.0mph /  11.3km/h 89% 0.00in /  0mm
01:19 68.2 °F /  20.1 °C 64.8 °F /  18.2 °C 29.88in /  1011.7hPa WSW 2.0mph /  3.2km/h 6.0mph /  9.7km/h 89% 0.00in /  0mm
01:24 68.2 °F /  20.1 °C 64.8 °F /  18.2 °C 29.88in /  1011.7hPa SW 1.0mph /  1.6km/h 6.0mph /  9.7km/h 89% 0.00in /  0mm
01:29 68.3 °F /  20.2 °C 64.9 °F /  18.3 °C 29.88in /  1011.7hPa WSW 3.0mph /  4.8km/h 6.0mph /  9.7km/h 89% 0.00in /  0mm
01:34 68.3 °F /  20.2 °C 64.9 °F /  18.3 °C 29.88in /  1011.7hPa WSW 3.0mph /  4.8km/h 6.0mph /  9.7km/h 89% 0.01in /  0.25mm
01:39 68.3 °F /  20.2 °C 64.9 °F /  18.3 °C 29.88in /  1011.7hPa WSW 3.0mph /  4.8km/h 8.0mph /  12.9km/h 89% 0.01in /  0.25mm
01:44 68.4 °F /  20.2 °C 65.0 °F /  18.3 °C 29.88in /  1011.7hPa WSW 3.0mph /  4.8km/h 8.0mph /  12.9km/h 89% 0.01in /  0.25mm
01:49 68.3 °F /  20.2 °C 64.9 °F /  18.3 °C 29.88in /  1011.7hPa SW 2.0mph /  3.2km/h 5.0mph /  8km/h 89% 0.01in /  0.25mm
01:54 68.4 °F /  20.2 °C 65.0 °F /  18.3 °C 29.88in /  1011.7hPa SW 2.0mph /  3.2km/h 7.0mph /  11.3km/h 89% 0.01in /  0.25mm
01:59 68.5 °F /  20.3 °C 65.1 °F /  18.4 °C 29.88in /  1011.7hPa SW 2.0mph /  3.2km/h 7.0mph /  11.3km/h 89% 0.01in /  0.25mm
02:04 68.5 °F /  20.3 °C 65.1 °F /  18.4 °C 29.88in /  1011.7hPa SW 2.0mph /  3.2km/h 5.0mph /  8km/h 89% 0.01in /  0.25mm
02:09 68.6 °F /  20.3 °C 65.2 °F /  18.4 °C 29.88in /  1011.7hPa South 1.0mph /  1.6km/h 5.0mph /  8km/h 89% 0.01in /  0.25mm
02:14 68.6 °F /  20.3 °C 65.2 °F /  18.4 °C 29.88in /  1011.7hPa Calm   3.0mph /  4.8km/h 89% 0.01in /  0.25mm
02:19 68.5 °F /  20.3 °C 65.1 °F /  18.4 °C 29.88in /  1011.7hPa SSW 1.0mph /  1.6km/h 2.0mph /  3.2km/h 89% 0.01in /  0.25mm
02:24 68.2 °F /  20.1 °C 64.8 °F /  18.2 °C 29.88in /  1011.7hPa Calm   3.0mph /  4.8km/h 89% 0.01in /  0.25mm
02:29 68.2 °F /  20.1 °C 65.2 °F /  18.4 °C 29.88in /  1011.7hPa SW 3.0mph /  4.8km/h 5.0mph /  8km/h 90% 0.01in /  0.25mm
02:34 68.1 °F /  20.1 °C 65.1 °F /  18.4 °C 29.88in /  1011.7hPa SW 2.0mph /  3.2km/h 8.0mph /  12.9km/h 90% 0.00in /  0mm
02:39 68.1 °F /  20.1 °C 65.1 °F /  18.4 °C 29.88in /  1011.7hPa SW 3.0mph /  4.8km/h 8.0mph /  12.9km/h 90% 0.00in /  0mm
02:44 68.0 °F /  20 °C 64.6 °F /  18.1 °C 29.88in /  1011.7hPa SW 2.0mph /  3.2km/h 6.0mph /  9.7km/h 89% 0.00in /  0mm
02:49 67.8 °F /  19.9 °C 64.4 °F /  18 °C 29.88in /  1011.7hPa SW 2.0mph /  3.2km/h 6.0mph /  9.7km/h 89% 0.00in /  0mm
02:54 67.8 °F /  19.9 °C 64.4 °F /  18 °C 29.88in /  1011.7hPa SW 1.0mph /  1.6km/h 3.0mph /  4.8km/h 89% 0.00in /  0mm
02:59 67.7 °F /  19.8 °C 64.3 °F /  17.9 °C 29.88in /  1011.7hPa SSW 2.0mph /  3.2km/h 4.0mph /  6.4km/h 89% 0.00in /  0mm
03:04 67.6 °F /  19.8 °C 64.6 °F /  18.1 °C 29.87in /  1011.4hPa SSW 1.0mph /  1.6km/h 5.0mph /  8km/h 90% 0.00in /  0mm
03:09 67.5 °F /  19.7 °C 64.5 °F /  18.1 °C 29.88in /  1011.7hPa South 2.0mph /  3.2km/h 6.0mph /  9.7km/h 90% 0.00in /  0mm
03:14 67.5 °F /  19.7 °C 64.5 °F /  18.1 °C 29.87in /  1011.4hPa SSW 2.0mph /  3.2km/h 6.0mph /  9.7km/h 90% 0.00in /  0mm
03:19 67.5 °F /  19.7 °C 64.5 °F /  18.1 °C 29.88in /  1011.7hPa SSW 2.0mph /  3.2km/h 4.0mph /  6.4km/h 90% 0.00in /  0mm
03:24 67.5 °F /  19.7 °C 64.5 °F /  18.1 °C 29.87in /  1011.4hPa Calm   2.0mph /  3.2km/h 90% 0.00in /  0mm
03:29 67.4 °F /  19.7 °C 64.4 °F /  18 °C 29.87in /  1011.4hPa Calm   5.0mph /  8km/h 90% 0.00in /  0mm
03:34 67.4 °F /  19.7 °C 64.4 °F /  18 °C 29.88in /  1011.7hPa Calm   5.0mph /  8km/h 90% 0.00in /  0mm
03:39 67.3 °F /  19.6 °C 64.3 °F /  17.9 °C 29.87in /  1011.4hPa Calm     90% 0.00in /  0mm
03:44 67.3 °F /  19.6 °C 64.3 °F /  17.9 °C 29.87in /  1011.4hPa Calm     90% 0.00in /  0mm
03:49 67.4 °F /  19.7 °C 64.4 °F /  18 °C 29.87in /  1011.4hPa Calm     90% 0.00in /  0mm
03:54 67.4 °F /  19.7 °C 64.4 °F /  18 °C 29.87in /  1011.4hPa Calm     90% 0.00in /  0mm
03:59 67.3 °F /  19.6 °C 63.9 °F /  17.7 °C 29.87in /  1011.4hPa Calm     89% 0.00in /  0mm
04:04 67.2 °F /  19.6 °C 63.8 °F /  17.7 °C 29.87in /  1011.4hPa Calm     89% 0.00in /  0mm
04:09 67.1 °F /  19.5 °C 63.7 °F /  17.6 °C 29.87in /  1011.4hPa Calm     89% 0.00in /  0mm
04:14 67.0 °F /  19.4 °C 63.6 °F /  17.6 °C 29.87in /  1011.4hPa Calm     89% 0.00in /  0mm
04:19 66.8 °F /  19.3 °C 63.5 °F /  17.5 °C 29.87in /  1011.4hPa Calm   2.0mph /  3.2km/h 89% 0.00in /  0mm
04:24 66.6 °F /  19.2 °C 63.6 °F /  17.6 °C 29.87in /  1011.4hPa SSE 1.0mph /  1.6km/h 3.0mph /  4.8km/h 90% 0.00in /  0mm
04:29 66.4 °F /  19.1 °C 63.1 °F /  17.3 °C 29.87in /  1011.4hPa Calm   3.0mph /  4.8km/h 89% 0.00in /  0mm
04:34 66.2 °F /  19 °C 63.2 °F /  17.3 °C 29.87in /  1011.4hPa SSE 1.0mph /  1.6km/h 4.0mph /  6.4km/h 90% 0.00in /  0mm
04:39 66.1 °F /  18.9 °C 63.1 °F /  17.3 °C 29.87in /  1011.4hPa Calm   3.0mph /  4.8km/h 90% 0.00in /  0mm
04:44 65.8 °F /  18.8 °C 62.8 °F /  17.1 °C 29.87in /  1011.4hPa Calm     90% 0.00in /  0mm
04:49 65.5 °F /  18.6 °C 62.5 °F /  16.9 °C 29.87in /  1011.4hPa Calm     90% 0.00in /  0mm
04:54 65.4 °F /  18.6 °C 62.4 °F /  16.9 °C 29.87in /  1011.4hPa Calm   4.0mph /  6.4km/h 90% 0.00in /  0mm
04:59 65.2 °F /  18.4 °C 62.2 °F /  16.8 °C 29.87in /  1011.4hPa Calm   1.0mph /  1.6km/h 90% 0.00in /  0mm
05:04 65.1 °F /  18.4 °C 62.1 °F /  16.7 °C 29.87in /  1011.4hPa Calm     90% 0.00in /  0mm
05:09 65.2 °F /  18.4 °C 62.5 °F /  16.9 °C 29.87in /  1011.4hPa Calm   2.0mph /  3.2km/h 91% 0.00in /  0mm
05:14 65.2 °F /  18.4 °C 62.5 °F /  16.9 °C 29.87in /  1011.4hPa Calm   2.0mph /  3.2km/h 91% 0.00in /  0mm
05:19 65.3 °F /  18.5 °C 62.6 °F /  17 °C 29.88in /  1011.7hPa Calm   2.0mph /  3.2km/h 91% 0.00in /  0mm
05:24 65.4 °F /  18.6 °C 62.7 °F /  17.1 °C 29.88in /  1011.7hPa Calm   4.0mph /  6.4km/h 91% 0.00in /  0mm
05:29 65.4 °F /  18.6 °C 62.7 °F /  17.1 °C 29.88in /  1011.7hPa Calm   2.0mph /  3.2km/h 91% 0.00in /  0mm
05:34 65.4 °F /  18.6 °C 62.7 °F /  17.1 °C 29.88in /  1011.7hPa Calm   1.0mph /  1.6km/h 91% 0.00in /  0mm
05:39 65.5 °F /  18.6 °C 62.8 °F /  17.1 °C 29.88in /  1011.7hPa Calm   1.0mph /  1.6km/h 91% 0.00in /  0mm
05:44 65.5 °F /  18.6 °C 62.8 °F /  17.1 °C 29.88in /  1011.7hPa Calm   1.0mph /  1.6km/h 91% 0.00in /  0mm
05:49 65.5 °F /  18.6 °C 62.8 °F /  17.1 °C 29.89in /  1012.1hPa Calm   4.0mph /  6.4km/h 91% 0.00in /  0mm
05:54 65.5 °F /  18.6 °C 62.5 °F /  16.9 °C 29.89in /  1012.1hPa Calm   1.0mph /  1.6km/h 90% 0.00in /  0mm
05:59 65.5 °F /  18.6 °C 62.5 °F /  16.9 °C 29.89in /  1012.1hPa Calm     90% 0.00in /  0mm
06:04 65.4 °F /  18.6 °C 62.4 °F /  16.9 °C 29.89in /  1012.1hPa Calm     90% 0.00in /  0mm
06:09 65.3 °F /  18.5 °C 62.3 °F /  16.8 °C 29.89in /  1012.1hPa Calm     90% 0.00in /  0mm
06:14 65.2 °F /  18.4 °C 62.2 °F /  16.8 °C 29.90in /  1012.4hPa Calm     90% 0.00in /  0mm
06:19 65.1 °F /  18.4 °C 62.1 °F /  16.7 °C 29.90in /  1012.4hPa Calm     90% 0.00in /  0mm
06:24 65.2 °F /  18.4 °C 62.2 °F /  16.8 °C 29.89in /  1012.1hPa Calm     90% 0.00in /  0mm
06:29 65.2 °F /  18.4 °C 62.2 °F /  16.8 °C 29.89in /  1012.1hPa Calm     90% 0.00in /  0mm
06:34 65.5 °F /  18.6 °C 62.8 °F /  17.1 °C 29.89in /  1012.1hPa Calm     91% 0.00in /  0mm
06:39 65.9 °F /  18.8 °C 62.9 °F /  17.2 °C 29.89in /  1012.1hPa Calm   3.0mph /  4.8km/h 90% 0.00in /  0mm
06:44 66.2 °F /  19 °C 63.2 °F /  17.3 °C 29.89in /  1012.1hPa Calm   3.0mph /  4.8km/h 90% 0.00in /  0mm
06:49 66.4 °F /  19.1 °C 63.1 °F /  17.3 °C 29.89in /  1012.1hPa Calm   3.0mph /  4.8km/h 89% 0.00in /  0mm
06:54 66.4 °F /  19.1 °C 63.1 °F /  17.3 °C 29.89in /  1012.1hPa Calm   2.0mph /  3.2km/h 89% 0.00in /  0mm
06:59 66.5 °F /  19.2 °C 63.2 °F /  17.3 °C 29.89in /  1012.1hPa Calm   3.0mph /  4.8km/h 89% 0.00in /  0mm
07:04 66.7 °F /  19.3 °C 63.0 °F /  17.2 °C 29.89in /  1012.1hPa Calm   4.0mph /  6.4km/h 88% 0.00in /  0mm
07:09 66.8 °F /  19.3 °C 63.1 °F /  17.3 °C 29.90in /  1012.4hPa SSW 1.0mph /  1.6km/h 4.0mph /  6.4km/h 88% 0.00in /  0mm
07:19 67.1 °F /  19.5 °C 63.4 °F /  17.4 °C 29.90in /  1012.4hPa Calm   5.0mph /  8km/h 88% 0.00in /  0mm
07:24 67.1 °F /  19.5 °C 63.4 °F /  17.4 °C 29.90in /  1012.4hPa Calm     88% 0.00in /  0mm
07:29 67.2 °F /  19.6 °C 63.5 °F /  17.5 °C 29.90in /  1012.4hPa Calm   3.0mph /  4.8km/h 88% 0.00in /  0mm
07:34 67.5 °F /  19.7 °C 63.5 °F /  17.5 °C 29.89in /  1012.1hPa Calm   3.0mph /  4.8km/h 87% 0.00in /  0mm
07:39 67.9 °F /  19.9 °C 63.9 °F /  17.7 °C 29.89in /  1012.1hPa South 1.0mph /  1.6km/h 3.0mph /  4.8km/h 87% 0.00in /  0mm
07:44 68.5 °F /  20.3 °C 64.1 °F /  17.8 °C 29.89in /  1012.1hPa SSW 3.0mph /  4.8km/h 5.0mph /  8km/h 86% 0.00in /  0mm
07:49 68.8 °F /  20.4 °C 64.1 °F /  17.8 °C 29.89in /  1012.1hPa Calm   3.0mph /  4.8km/h 85% 0.00in /  0mm
07:54 69.6 °F /  20.9 °C 64.9 °F /  18.3 °C 29.89in /  1012.1hPa Calm   4.0mph /  6.4km/h 85% 0.00in /  0mm
07:59 70.0 °F /  21.1 °C 64.6 °F /  18.1 °C 29.90in /  1012.4hPa SW 2.0mph /  3.2km/h 5.0mph /  8km/h 83% 0.00in /  0mm
08:04 70.1 °F /  21.2 °C 64.3 °F /  17.9 °C 29.90in /  1012.4hPa South 2.0mph /  3.2km/h 4.0mph /  6.4km/h 82% 0.00in /  0mm
08:09 70.6 °F /  21.4 °C 64.5 °F /  18.1 °C 29.90in /  1012.4hPa South 2.0mph /  3.2km/h 4.0mph /  6.4km/h 81% 0.00in /  0mm
08:14 70.5 °F /  21.4 °C 64.4 °F /  18 °C 29.90in /  1012.4hPa SSW 2.0mph /  3.2km/h 4.0mph /  6.4km/h 81% 0.00in /  0mm
08:19 70.7 °F /  21.5 °C 64.6 °F /  18.1 °C 29.90in /  1012.4hPa SW 2.0mph /  3.2km/h 4.0mph /  6.4km/h 81% 0.00in /  0mm
08:24 71.1 °F /  21.7 °C 64.3 °F /  17.9 °C 29.90in /  1012.4hPa SW 2.0mph /  3.2km/h 5.0mph /  8km/h 79% 0.00in /  0mm
08:29 71.7 °F /  22.1 °C 65.2 °F /  18.4 °C 29.89in /  1012.1hPa SW 3.0mph /  4.8km/h 5.0mph /  8km/h 80% 0.00in /  0mm
08:34 72.2 °F /  22.3 °C 65.0 °F /  18.3 °C 29.89in /  1012.1hPa West 2.0mph /  3.2km/h 7.0mph /  11.3km/h 78% 0.00in /  0mm
08:39 72.8 °F /  22.7 °C 65.2 °F /  18.4 °C 29.90in /  1012.4hPa SW 2.0mph /  3.2km/h 7.0mph /  11.3km/h 77% 0.00in /  0mm
08:44 72.2 °F /  22.3 °C 64.6 °F /  18.1 °C 29.90in /  1012.4hPa SSE 1.0mph /  1.6km/h 7.0mph /  11.3km/h 77% 0.00in /  0mm
08:49 71.9 °F /  22.2 °C 64.3 °F /  17.9 °C 29.90in /  1012.4hPa SSW 4.0mph /  6.4km/h 6.0mph /  9.7km/h 77% 0.00in /  0mm
08:54 71.8 °F /  22.1 °C 64.6 °F /  18.1 °C 29.89in /  1012.1hPa SSW 6.0mph /  9.7km/h 6.0mph /  9.7km/h 78% 0.00in /  0mm
08:59 71.5 °F /  21.9 °C 63.9 °F /  17.7 °C 29.90in /  1012.4hPa WSW 5.0mph /  8km/h 6.0mph /  9.7km/h 77% 0.00in /  0mm
09:04 71.5 °F /  21.9 °C 63.9 °F /  17.7 °C 29.90in /  1012.4hPa SSE 1.0mph /  1.6km/h 5.0mph /  8km/h 77% 0.00in /  0mm
09:09 71.9 °F /  22.2 °C 64.3 °F /  17.9 °C 29.90in /  1012.4hPa SW 3.0mph /  4.8km/h 6.0mph /  9.7km/h 77% 0.00in /  0mm
09:14 72.0 °F /  22.2 °C 64.0 °F /  17.8 °C 29.90in /  1012.4hPa SSW 3.0mph /  4.8km/h 6.0mph /  9.7km/h 76% 0.00in /  0mm
09:19 72.6 °F /  22.6 °C 65.0 °F /  18.3 °C 29.90in /  1012.4hPa SSW 2.0mph /  3.2km/h 5.0mph /  8km/h 77% 0.00in /  0mm
09:24 72.9 °F /  22.7 °C 64.5 °F /  18.1 °C 29.90in /  1012.4hPa SW 3.0mph /  4.8km/h 6.0mph /  9.7km/h 75% 0.00in /  0mm
09:29 72.2 °F /  22.3 °C 64.2 °F /  17.9 °C 29.90in /  1012.4hPa WSW 3.0mph /  4.8km/h 6.0mph /  9.7km/h 76% 0.00in /  0mm
09:34 72.0 °F /  22.2 °C 64.0 °F /  17.8 °C 29.90in /  1012.4hPa SW 2.0mph /  3.2km/h 5.0mph /  8km/h 76% 0.00in /  0mm
09:39 72.2 °F /  22.3 °C 64.2 °F /  17.9 °C 29.90in /  1012.4hPa SW 2.0mph /  3.2km/h 5.0mph /  8km/h 76% 0.00in /  0mm
09:44 72.4 °F /  22.4 °C 64.4 °F /  18 °C 29.90in /  1012.4hPa SSW 2.0mph /  3.2km/h 6.0mph /  9.7km/h 76% 0.00in /  0mm
09:49 73.1 °F /  22.8 °C 65.1 °F /  18.4 °C 29.90in /  1012.4hPa SSW 3.0mph /  4.8km/h 4.0mph /  6.4km/h 76% 0.00in /  0mm
09:54 74.5 °F /  23.6 °C 65.3 °F /  18.5 °C 29.90in /  1012.4hPa SW 3.0mph /  4.8km/h 7.0mph /  11.3km/h 73% 0.00in /  0mm
09:59 74.3 °F /  23.5 °C 65.1 °F /  18.4 °C 29.90in /  1012.4hPa SSW 2.0mph /  3.2km/h 5.0mph /  8km/h 73% 0.00in /  0mm
10:04 73.4 °F /  23 °C 64.2 °F /  17.9 °C 29.90in /  1012.4hPa WSW 3.0mph /  4.8km/h 7.0mph /  11.3km/h 73% 0.00in /  0mm
10:09 73.1 °F /  22.8 °C 64.3 °F /  17.9 °C 29.90in /  1012.4hPa SSW 2.0mph /  3.2km/h 7.0mph /  11.3km/h 74% 0.00in /  0mm
10:14 74.0 °F /  23.3 °C 64.4 °F /  18 °C 29.90in /  1012.4hPa SW 3.0mph /  4.8km/h 7.0mph /  11.3km/h 72% 0.00in /  0mm
10:19 74.9 °F /  23.8 °C 65.7 °F /  18.7 °C 29.90in /  1012.4hPa WSW 3.0mph /  4.8km/h 7.0mph /  11.3km/h 73% 0.00in /  0mm
10:24 74.4 °F /  23.6 °C 65.2 °F /  18.4 °C 29.90in /  1012.4hPa West 3.0mph /  4.8km/h 7.0mph /  11.3km/h 73% 0.00in /  0mm
10:29 73.7 °F /  23.2 °C 64.5 °F /  18.1 °C 29.90in /  1012.4hPa West 3.0mph /  4.8km/h 8.0mph /  12.9km/h 73% 0.00in /  0mm
10:34 73.6 °F /  23.1 °C 65.2 °F /  18.4 °C 29.90in /  1012.4hPa West 3.0mph /  4.8km/h 8.0mph /  12.9km/h 75% 0.00in /  0mm
10:39 73.9 °F /  23.3 °C 65.1 °F /  18.4 °C 29.90in /  1012.4hPa WSW 3.0mph /  4.8km/h 6.0mph /  9.7km/h 74% 0.00in /  0mm
10:44 75.4 °F /  24.1 °C 65.3 °F /  18.5 °C 29.90in /  1012.4hPa WSW 2.0mph /  3.2km/h 6.0mph /  9.7km/h 71% 0.00in /  0mm
10:49 75.6 °F /  24.2 °C 65.5 °F /  18.6 °C 29.90in /  1012.4hPa West 2.0mph /  3.2km/h 7.0mph /  11.3km/h 71% 0.00in /  0mm
10:54 75.8 °F /  24.3 °C 65.3 °F /  18.5 °C 29.90in /  1012.4hPa SW 2.0mph /  3.2km/h 7.0mph /  11.3km/h 70% 0.00in /  0mm
10:59 75.6 °F /  24.2 °C 65.1 °F /  18.4 °C 29.90in /  1012.4hPa West 2.0mph /  3.2km/h 3.0mph /  4.8km/h 70% 0.00in /  0mm
11:04 76.7 °F /  24.8 °C 65.3 °F /  18.5 °C 29.90in /  1012.4hPa West 3.0mph /  4.8km/h 6.0mph /  9.7km/h 68% 0.00in /  0mm
11:09 77.6 °F /  25.3 °C 67.0 °F /  19.4 °C 29.90in /  1012.4hPa SSW 2.0mph /  3.2km/h 6.0mph /  9.7km/h 70% 0.00in /  0mm
11:14 78.3 °F /  25.7 °C 66.0 °F /  18.9 °C 29.90in /  1012.4hPa SW 3.0mph /  4.8km/h 6.0mph /  9.7km/h 66% 0.00in /  0mm
11:19 77.4 °F /  25.2 °C 66.0 °F /  18.9 °C 29.89in /  1012.1hPa SW 3.0mph /  4.8km/h 6.0mph /  9.7km/h 68% 0.00in /  0mm
11:24 77.2 °F /  25.1 °C 66.2 °F /  19 °C 29.89in /  1012.1hPa WSW 3.0mph /  4.8km/h 6.0mph /  9.7km/h 69% 0.00in /  0mm
11:29 77.2 °F /  25.1 °C 65.8 °F /  18.8 °C 29.90in /  1012.4hPa West 3.0mph /  4.8km/h 5.0mph /  8km/h 68% 0.00in /  0mm
11:34 78.0 °F /  25.6 °C 65.7 °F /  18.7 °C 29.90in /  1012.4hPa West 2.0mph /  3.2km/h 8.0mph /  12.9km/h 66% 0.00in /  0mm
11:39 77.2 °F /  25.1 °C 64.5 °F /  18.1 °C 29.90in /  1012.4hPa West 5.0mph /  8km/h 9.0mph /  14.5km/h 65% 0.00in /  0mm
11:44 78.0 °F /  25.6 °C 65.3 °F /  18.5 °C 29.90in /  1012.4hPa WSW 4.0mph /  6.4km/h 9.0mph /  14.5km/h 65% 0.00in /  0mm
11:49 78.0 °F /  25.6 °C 64.4 °F /  18 °C 29.90in /  1012.4hPa WSW 3.0mph /  4.8km/h 7.0mph /  11.3km/h 63% 0.00in /  0mm
11:54 77.6 °F /  25.3 °C 65.8 °F /  18.8 °C 29.90in /  1012.4hPa WSW 3.0mph /  4.8km/h 7.0mph /  11.3km/h 67% 0.00in /  0mm
11:59 78.4 °F /  25.8 °C 66.1 °F /  18.9 °C 29.90in /  1012.4hPa WSW 4.0mph /  6.4km/h 8.0mph /  12.9km/h 66% 0.00in /  0mm
12:04 78.0 °F /  25.6 °C 66.2 °F /  19 °C 29.90in /  1012.4hPa NW 4.0mph /  6.4km/h 6.0mph /  9.7km/h 67% 0.00in /  0mm
12:09 77.6 °F /  25.3 °C 64.0 °F /  17.8 °C 29.90in /  1012.4hPa West 3.0mph /  4.8km/h 9.0mph /  14.5km/h 63% 0.00in /  0mm
12:14 78.6 °F /  25.9 °C 65.4 °F /  18.6 °C 29.90in /  1012.4hPa WSW 4.0mph /  6.4km/h 9.0mph /  14.5km/h 64% 0.00in /  0mm
12:19 78.5 °F /  25.8 °C 65.8 °F /  18.8 °C 29.90in /  1012.4hPa WSW 4.0mph /  6.4km/h 9.0mph /  14.5km/h 65% 0.00in /  0mm
12:24 79.2 °F /  26.2 °C 65.5 °F /  18.6 °C 29.90in /  1012.4hPa West 4.0mph /  6.4km/h 9.0mph /  14.5km/h 63% 0.00in /  0mm
12:29 79.2 °F /  26.2 °C 66.0 °F /  18.9 °C 29.89in /  1012.1hPa WSW 4.0mph /  6.4km/h 8.0mph /  12.9km/h 64% 0.00in /  0mm
12:34 80.0 °F /  26.7 °C 65.8 °F /  18.8 °C 29.90in /  1012.4hPa SW 5.0mph /  8km/h 8.0mph /  12.9km/h 62% 0.00in /  0mm
12:39 78.9 °F /  26.1 °C 65.7 °F /  18.7 °C 29.89in /  1012.1hPa SW 4.0mph /  6.4km/h 7.0mph /  11.3km/h 64% 0.00in /  0mm
12:44 79.0 °F /  26.1 °C 65.3 °F /  18.5 °C 29.90in /  1012.4hPa WSW 6.0mph /  9.7km/h 11.0mph /  17.7km/h 63% 0.00in /  0mm
12:49 79.8 °F /  26.6 °C 67.4 °F /  19.7 °C 29.90in /  1012.4hPa SW 5.0mph /  8km/h 11.0mph /  17.7km/h 66% 0.00in /  0mm
12:54 79.4 °F /  26.3 °C 65.2 °F /  18.4 °C 29.90in /  1012.4hPa SW 5.0mph /  8km/h 10.0mph /  16.1km/h 62% 0.00in /  0mm
12:59 79.9 °F /  26.6 °C 65.7 °F /  18.7 °C 29.90in /  1012.4hPa SW 5.0mph /  8km/h 10.0mph /  16.1km/h 62% 0.00in /  0mm
13:04 80.5 °F /  26.9 °C 67.2 °F /  19.6 °C 29.90in /  1012.4hPa South 4.0mph /  6.4km/h 9.0mph /  14.5km/h 64% 0.00in /  0mm
13:09 79.9 °F /  26.6 °C 67.1 °F /  19.5 °C 29.90in /  1012.4hPa NW 10.0mph /  16.1km/h 10.0mph /  16.1km/h 65% 0.00in /  0mm
13:14 80.4 °F /  26.9 °C 66.6 °F /  19.2 °C 29.90in /  1012.4hPa SW 9.0mph /  14.5km/h 10.0mph /  16.1km/h 63% 0.00in /  0mm
13:19 79.8 °F /  26.6 °C 67.4 °F /  19.7 °C 29.90in /  1012.4hPa WSW 6.0mph /  9.7km/h 12.0mph /  19.3km/h 66% 0.00in /  0mm
13:24 80.5 °F /  26.9 °C 68.1 °F /  20.1 °C 29.90in /  1012.4hPa WSW 5.0mph /  8km/h 12.0mph /  19.3km/h 66% 0.00in /  0mm
13:29 79.8 °F /  26.6 °C 67.0 °F /  19.4 °C 29.90in /  1012.4hPa West 4.0mph /  6.4km/h 11.0mph /  17.7km/h 65% 0.00in /  0mm
13:34 80.0 °F /  26.7 °C 66.3 °F /  19.1 °C 29.91in /  1012.8hPa SSW 5.0mph /  8km/h 12.0mph /  19.3km/h 63% 0.00in /  0mm
13:39 80.8 °F /  27.1 °C 67.0 °F /  19.4 °C 29.91in /  1012.8hPa WNW 4.0mph /  6.4km/h 9.0mph /  14.5km/h 63% 0.00in /  0mm
13:44 81.5 °F /  27.5 °C 67.2 °F /  19.6 °C 29.91in /  1012.8hPa West 6.0mph /  9.7km/h 8.0mph /  12.9km/h 62% 0.00in /  0mm
13:49 81.1 °F /  27.3 °C 65.9 °F /  18.8 °C 29.91in /  1012.8hPa WSW 4.0mph /  6.4km/h 9.0mph /  14.5km/h 60% 0.00in /  0mm
13:54 81.0 °F /  27.2 °C 66.3 °F /  19.1 °C 29.91in /  1012.8hPa WSW 5.0mph /  8km/h 9.0mph /  14.5km/h 61% 0.00in /  0mm
13:59 82.2 °F /  27.9 °C 65.4 °F /  18.6 °C 29.90in /  1012.4hPa WSW 4.0mph /  6.4km/h 9.0mph /  14.5km/h 57% 0.00in /  0mm
14:04 81.4 °F /  27.4 °C 65.7 °F /  18.7 °C 29.90in /  1012.4hPa West 4.0mph /  6.4km/h 9.0mph /  14.5km/h 59% 0.00in /  0mm
14:09 81.3 °F /  27.4 °C 64.6 °F /  18.1 °C 29.90in /  1012.4hPa WSW 4.0mph /  6.4km/h 12.0mph /  19.3km/h 57% 0.00in /  0mm
14:14 81.3 °F /  27.4 °C 66.1 °F /  18.9 °C 29.90in /  1012.4hPa WNW 4.0mph /  6.4km/h 9.0mph /  14.5km/h 60% 0.00in /  0mm
14:19 81.6 °F /  27.6 °C 66.8 °F /  19.3 °C 29.89in /  1012.1hPa WNW 3.0mph /  4.8km/h 11.0mph /  17.7km/h 61% 0.00in /  0mm
14:24 82.1 °F /  27.8 °C 66.4 °F /  19.1 °C 29.89in /  1012.1hPa SW 6.0mph /  9.7km/h 10.0mph /  16.1km/h 59% 0.00in /  0mm
14:29 82.2 °F /  27.9 °C 66.0 °F /  18.9 °C 29.89in /  1012.1hPa West 4.0mph /  6.4km/h 9.0mph /  14.5km/h 58% 0.00in /  0mm
14:34 82.4 °F /  28 °C 66.6 °F /  19.2 °C 29.89in /  1012.1hPa WSW 3.0mph /  4.8km/h 8.0mph /  12.9km/h 59% 0.00in /  0mm
14:39 82.3 °F /  27.9 °C 65.5 °F /  18.6 °C 29.89in /  1012.1hPa WSW 8.0mph /  12.9km/h 11.0mph /  17.7km/h 57% 0.00in /  0mm
14:44 81.8 °F /  27.7 °C 65.6 °F /  18.7 °C 29.89in /  1012.1hPa West 6.0mph /  9.7km/h 8.0mph /  12.9km/h 58% 0.00in /  0mm
14:49 82.7 °F /  28.2 °C 66.9 °F /  19.4 °C 29.89in /  1012.1hPa WSW 4.0mph /  6.4km/h 8.0mph /  12.9km/h 59% 0.00in /  0mm
14:54 82.6 °F /  28.1 °C 64.3 °F /  17.9 °C 29.89in /  1012.1hPa WSW 4.0mph /  6.4km/h 8.0mph /  12.9km/h 54% 0.00in /  0mm
14:59 82.5 °F /  28.1 °C 65.2 °F /  18.4 °C 29.89in /  1012.1hPa SW 4.0mph /  6.4km/h 8.0mph /  12.9km/h 56% 0.00in /  0mm
15:04 81.8 °F /  27.7 °C 65.1 °F /  18.4 °C 29.88in /  1011.7hPa WSW 4.0mph /  6.4km/h 10.0mph /  16.1km/h 57% 0.00in /  0mm
15:09 82.0 °F /  27.8 °C 65.8 °F /  18.8 °C 29.89in /  1012.1hPa WSW 5.0mph /  8km/h 10.0mph /  16.1km/h 58% 0.00in /  0mm
15:14 82.7 °F /  28.2 °C 64.4 °F /  18 °C 29.89in /  1012.1hPa WSW 5.0mph /  8km/h 10.0mph /  16.1km/h 54% 0.00in /  0mm
15:19 82.8 °F /  28.2 °C 66.0 °F /  18.9 °C 29.89in /  1012.1hPa WSW 5.0mph /  8km/h 9.0mph /  14.5km/h 57% 0.00in /  0mm
15:24 83.0 °F /  28.3 °C 67.2 °F /  19.6 °C 29.89in /  1012.1hPa WNW 2.0mph /  3.2km/h 8.0mph /  12.9km/h 59% 0.00in /  0mm
15:29 83.0 °F /  28.3 °C 65.7 °F /  18.7 °C 29.89in /  1012.1hPa SSW 4.0mph /  6.4km/h 9.0mph /  14.5km/h 56% 0.00in /  0mm
15:34 83.2 °F /  28.4 °C 66.4 °F /  19.1 °C 29.89in /  1012.1hPa South 5.0mph /  8km/h 11.0mph /  17.7km/h 57% 0.00in /  0mm
15:39 82.5 °F /  28.1 °C 66.2 °F /  19 °C 29.88in /  1011.7hPa WNW 3.0mph /  4.8km/h 8.0mph /  12.9km/h 58% 0.00in /  0mm
15:44 82.3 °F /  27.9 °C 66.0 °F /  18.9 °C 29.89in /  1012.1hPa WSW 4.0mph /  6.4km/h 7.0mph /  11.3km/h 58% 0.00in /  0mm
15:49 83.1 °F /  28.4 °C 65.8 °F /  18.8 °C 29.89in /  1012.1hPa WSW 7.0mph /  11.3km/h 7.0mph /  11.3km/h 56% 0.00in /  0mm
15:54 83.2 °F /  28.4 °C 66.4 °F /  19.1 °C 29.89in /  1012.1hPa SW 4.0mph /  6.4km/h 11.0mph /  17.7km/h 57% 0.00in /  0mm
15:59 83.3 °F /  28.5 °C 66.5 °F /  19.2 °C 29.89in /  1012.1hPa SW 4.0mph /  6.4km/h 11.0mph /  17.7km/h 57% 0.00in /  0mm
16:04 83.2 °F /  28.4 °C 67.9 °F /  19.9 °C 29.89in /  1012.1hPa SW 5.0mph /  8km/h 9.0mph /  14.5km/h 60% 0.00in /  0mm
16:09 83.0 °F /  28.3 °C 66.2 °F /  19 °C 29.89in /  1012.1hPa SSW 7.0mph /  11.3km/h 10.0mph /  16.1km/h 57% 0.00in /  0mm
16:14 82.1 °F /  27.8 °C 65.4 °F /  18.6 °C 29.89in /  1012.1hPa SW 4.0mph /  6.4km/h 9.0mph /  14.5km/h 57% 0.00in /  0mm
16:19 82.3 °F /  27.9 °C 66.5 °F /  19.2 °C 29.89in /  1012.1hPa SW 5.0mph /  8km/h 9.0mph /  14.5km/h 59% 0.00in /  0mm
16:24 82.3 °F /  27.9 °C 66.5 °F /  19.2 °C 29.89in /  1012.1hPa SW 3.0mph /  4.8km/h 8.0mph /  12.9km/h 59% 0.00in /  0mm
16:29 82.1 °F /  27.8 °C 65.4 °F /  18.6 °C 29.89in /  1012.1hPa WSW 3.0mph /  4.8km/h 9.0mph /  14.5km/h 57% 0.00in /  0mm
16:34 83.1 °F /  28.4 °C 66.8 °F /  19.3 °C 29.88in /  1011.7hPa SW 3.0mph /  4.8km/h 5.0mph /  8km/h 58% 0.00in /  0mm
16:39 83.2 °F /  28.4 °C 66.4 °F /  19.1 °C 29.88in /  1011.7hPa SSW 2.0mph /  3.2km/h 8.0mph /  12.9km/h 57% 0.00in /  0mm
16:44 83.6 °F /  28.7 °C 66.2 °F /  19 °C 29.88in /  1011.7hPa West 5.0mph /  8km/h 9.0mph /  14.5km/h 56% 0.00in /  0mm
16:49 83.1 °F /  28.4 °C 65.8 °F /  18.8 °C 29.88in /  1011.7hPa WSW 5.0mph /  8km/h 10.0mph /  16.1km/h 56% 0.00in /  0mm
16:54 83.1 °F /  28.4 °C 65.3 °F /  18.5 °C 29.88in /  1011.7hPa West 5.0mph /  8km/h 10.0mph /  16.1km/h 55% 0.00in /  0mm
16:59 82.6 °F /  28.1 °C 65.3 °F /  18.5 °C 29.88in /  1011.7hPa WSW 5.0mph /  8km/h 10.0mph /  16.1km/h 56% 0.00in /  0mm
17:04 82.2 °F /  27.9 °C 64.9 °F /  18.3 °C 29.89in /  1012.1hPa WSW 5.0mph /  8km/h 10.0mph /  16.1km/h 56% 0.00in /  0mm
17:09 82.2 °F /  27.9 °C 65.4 °F /  18.6 °C 29.89in /  1012.1hPa SW 5.0mph /  8km/h 10.0mph /  16.1km/h 57% 0.00in /  0mm
17:14 82.8 °F /  28.2 °C 66.0 °F /  18.9 °C 29.89in /  1012.1hPa WNW 6.0mph /  9.7km/h 8.0mph /  12.9km/h 57% 0.00in /  0mm
17:19 82.3 °F /  27.9 °C 66.0 °F /  18.9 °C 29.89in /  1012.1hPa WSW 5.0mph /  8km/h 9.0mph /  14.5km/h 58% 0.00in /  0mm
17:24 81.8 °F /  27.7 °C 65.6 °F /  18.7 °C 29.89in /  1012.1hPa WSW 5.0mph /  8km/h 13.0mph /  20.9km/h 58% 0.00in /  0mm
17:29 81.6 °F /  27.6 °C 65.9 °F /  18.8 °C 29.89in /  1012.1hPa WSW 5.0mph /  8km/h 13.0mph /  20.9km/h 59% 0.00in /  0mm
17:34 81.4 °F /  27.4 °C 65.7 °F /  18.7 °C 29.89in /  1012.1hPa SW 8.0mph /  12.9km/h 9.0mph /  14.5km/h 59% 0.00in /  0mm
17:39 81.2 °F /  27.3 °C 65.5 °F /  18.6 °C 29.88in /  1011.7hPa West 7.0mph /  11.3km/h 10.0mph /  16.1km/h 59% 0.00in /  0mm
17:44 81.1 °F /  27.3 °C 65.9 °F /  18.8 °C 29.88in /  1011.7hPa South 4.0mph /  6.4km/h 7.0mph /  11.3km/h 60% 0.00in /  0mm
17:49 81.4 °F /  27.4 °C 66.2 °F /  19 °C 29.88in /  1011.7hPa WSW 3.0mph /  4.8km/h 8.0mph /  12.9km/h 60% 0.00in /  0mm
17:54 81.3 °F /  27.4 °C 65.6 °F /  18.7 °C 29.88in /  1011.7hPa WSW 5.0mph /  8km/h 8.0mph /  12.9km/h 59% 0.00in /  0mm
17:59 80.8 °F /  27.1 °C 65.1 °F /  18.4 °C 29.88in /  1011.7hPa WNW 2.0mph /  3.2km/h 6.0mph /  9.7km/h 59% 0.00in /  0mm
18:04 81.2 °F /  27.3 °C 65.0 °F /  18.3 °C 29.88in /  1011.7hPa WSW 4.0mph /  6.4km/h 9.0mph /  14.5km/h 58% 0.00in /  0mm
18:09 81.1 °F /  27.3 °C 66.4 °F /  19.1 °C 29.88in /  1011.7hPa SW 4.0mph /  6.4km/h 9.0mph /  14.5km/h 61% 0.00in /  0mm
18:14 81.2 °F /  27.3 °C 65.0 °F /  18.3 °C 29.88in /  1011.7hPa SW 7.0mph /  11.3km/h 8.0mph /  12.9km/h 58% 0.00in /  0mm
18:19 80.9 °F /  27.2 °C 65.7 °F /  18.7 °C 29.88in /  1011.7hPa SSW 3.0mph /  4.8km/h 8.0mph /  12.9km/h 60% 0.00in /  0mm
18:24 80.8 °F /  27.1 °C 65.6 °F /  18.7 °C 29.88in /  1011.7hPa WSW 4.0mph /  6.4km/h 8.0mph /  12.9km/h 60% 0.00in /  0mm
18:29 80.5 °F /  26.9 °C 66.3 °F /  19.1 °C 29.88in /  1011.7hPa WSW 4.0mph /  6.4km/h 9.0mph /  14.5km/h 62% 0.00in /  0mm
18:34 80.4 °F /  26.9 °C 66.6 °F /  19.2 °C 29.88in /  1011.7hPa SSW 2.0mph /  3.2km/h 9.0mph /  14.5km/h 63% 0.00in /  0mm
18:39 80.3 °F /  26.8 °C 66.1 °F /  18.9 °C 29.88in /  1011.7hPa SW 3.0mph /  4.8km/h 7.0mph /  11.3km/h 62% 0.00in /  0mm
18:44 80.0 °F /  26.7 °C 65.8 °F /  18.8 °C 29.88in /  1011.7hPa SW 5.0mph /  8km/h 8.0mph /  12.9km/h 62% 0.00in /  0mm
18:49 79.8 °F /  26.6 °C 65.6 °F /  18.7 °C 29.87in /  1011.4hPa SSW 5.0mph /  8km/h 8.0mph /  12.9km/h 62% 0.00in /  0mm
18:54 79.7 °F /  26.5 °C 65.1 °F /  18.4 °C 29.87in /  1011.4hPa SW 3.0mph /  4.8km/h 8.0mph /  12.9km/h 61% 0.00in /  0mm
18:59 79.6 °F /  26.4 °C 65.4 °F /  18.6 °C 29.87in /  1011.4hPa SW 5.0mph /  8km/h 6.0mph /  9.7km/h 62% 0.00in /  0mm
19:04 79.5 °F /  26.4 °C 66.3 °F /  19.1 °C 29.87in /  1011.4hPa SW 3.0mph /  4.8km/h 6.0mph /  9.7km/h 64% 0.00in /  0mm
19:09 79.3 °F /  26.3 °C 66.1 °F /  18.9 °C 29.87in /  1011.4hPa SSW 4.0mph /  6.4km/h 7.0mph /  11.3km/h 64% 0.00in /  0mm
19:14 79.2 °F /  26.2 °C 66.4 °F /  19.1 °C 29.86in /  1011.1hPa SSW 1.0mph /  1.6km/h 5.0mph /  8km/h 65% 0.00in /  0mm
19:19 79.4 °F /  26.3 °C 66.2 °F /  19 °C 29.86in /  1011.1hPa SSW 3.0mph /  4.8km/h 6.0mph /  9.7km/h 64% 0.00in /  0mm
19:24 79.3 °F /  26.3 °C 66.5 °F /  19.2 °C 29.86in /  1011.1hPa WSW 3.0mph /  4.8km/h 6.0mph /  9.7km/h 65% 0.00in /  0mm
19:29 79.0 °F /  26.1 °C 67.1 °F /  19.5 °C 29.86in /  1011.1hPa WSW 3.0mph /  4.8km/h 7.0mph /  11.3km/h 67% 0.00in /  0mm
19:34 78.5 °F /  25.8 °C 66.6 °F /  19.2 °C 29.86in /  1011.1hPa SW 3.0mph /  4.8km/h 7.0mph /  11.3km/h 67% 0.00in /  0mm
19:39 78.4 °F /  25.8 °C 66.5 °F /  19.2 °C 29.86in /  1011.1hPa SSW 3.0mph /  4.8km/h 7.0mph /  11.3km/h 67% 0.00in /  0mm
19:44 78.3 °F /  25.7 °C 66.4 °F /  19.1 °C 29.86in /  1011.1hPa SW 2.0mph /  3.2km/h 8.0mph /  12.9km/h 67% 0.00in /  0mm
19:49 78.3 °F /  25.7 °C 66.4 °F /  19.1 °C 29.86in /  1011.1hPa WSW 4.0mph /  6.4km/h 5.0mph /  8km/h 67% 0.00in /  0mm
19:54 78.2 °F /  25.7 °C 65.9 °F /  18.8 °C 29.86in /  1011.1hPa WSW 2.0mph /  3.2km/h 5.0mph /  8km/h 66% 0.00in /  0mm
19:59 77.9 °F /  25.5 °C 65.6 °F /  18.7 °C 29.86in /  1011.1hPa SW 2.0mph /  3.2km/h 5.0mph /  8km/h 66% 0.00in /  0mm
20:04 77.7 °F /  25.4 °C 65.9 °F /  18.8 °C 29.87in /  1011.4hPa Calm   4.0mph /  6.4km/h 67% 0.00in /  0mm
20:09 77.7 °F /  25.4 °C 65.9 °F /  18.8 °C 29.86in /  1011.1hPa SW 2.0mph /  3.2km/h 3.0mph /  4.8km/h 67% 0.00in /  0mm
20:14 77.6 °F /  25.3 °C 65.3 °F /  18.5 °C 29.86in /  1011.1hPa SSW 1.0mph /  1.6km/h 4.0mph /  6.4km/h 66% 0.00in /  0mm
20:19 77.4 °F /  25.2 °C 64.3 °F /  17.9 °C 29.87in /  1011.4hPa SW 3.0mph /  4.8km/h 5.0mph /  8km/h 64% 0.00in /  0mm
20:24 77.3 °F /  25.2 °C 65.1 °F /  18.4 °C 29.87in /  1011.4hPa SW 3.0mph /  4.8km/h 5.0mph /  8km/h 66% 0.00in /  0mm
20:29 77.1 °F /  25.1 °C 65.3 °F /  18.5 °C 29.87in /  1011.4hPa SW 3.0mph /  4.8km/h 5.0mph /  8km/h 67% 0.00in /  0mm
20:34 77.0 °F /  25 °C 65.2 °F /  18.4 °C 29.88in /  1011.7hPa SW 3.0mph /  4.8km/h 6.0mph /  9.7km/h 67% 0.00in /  0mm
20:39 76.8 °F /  24.9 °C 65.4 °F /  18.6 °C 29.89in /  1012.1hPa SW 3.0mph /  4.8km/h 6.0mph /  9.7km/h 68% 0.00in /  0mm
20:44 76.6 °F /  24.8 °C 65.7 °F /  18.7 °C 29.89in /  1012.1hPa SW 3.0mph /  4.8km/h 5.0mph /  8km/h 69% 0.00in /  0mm
20:49 76.4 °F /  24.7 °C 65.5 °F /  18.6 °C 29.89in /  1012.1hPa SW 1.0mph /  1.6km/h 6.0mph /  9.7km/h 69% 0.00in /  0mm
20:54 76.2 °F /  24.6 °C 65.3 °F /  18.5 °C 29.89in /  1012.1hPa SW 1.0mph /  1.6km/h 3.0mph /  4.8km/h 69% 0.00in /  0mm
20:59 76.0 °F /  24.4 °C 65.5 °F /  18.6 °C 29.89in /  1012.1hPa SW 1.0mph /  1.6km/h 3.0mph /  4.8km/h 70% 0.00in /  0mm
21:04 75.8 °F /  24.3 °C 65.3 °F /  18.5 °C 29.89in /  1012.1hPa WSW 1.0mph /  1.6km/h 3.0mph /  4.8km/h 70% 0.00in /  0mm
21:09 75.6 °F /  24.2 °C 65.5 °F /  18.6 °C 29.88in /  1011.7hPa WSW 4.0mph /  6.4km/h 4.0mph /  6.4km/h 71% 0.00in /  0mm
21:14 75.7 °F /  24.3 °C 66.0 °F /  18.9 °C 29.89in /  1012.1hPa Calm   4.0mph /  6.4km/h 72% 0.00in /  0mm
21:19 75.5 °F /  24.2 °C 65.8 °F /  18.8 °C 29.89in /  1012.1hPa Calm     72% 0.00in /  0mm
21:24 75.3 °F /  24.1 °C 66.0 °F /  18.9 °C 29.89in /  1012.1hPa Calm     73% 0.00in /  0mm
21:29 74.9 °F /  23.8 °C 66.1 °F /  18.9 °C 29.89in /  1012.1hPa Calm     74% 0.00in /  0mm
21:34 74.6 °F /  23.7 °C 66.1 °F /  18.9 °C 29.89in /  1012.1hPa Calm     75% 0.00in /  0mm
21:39 74.5 °F /  23.6 °C 66.4 °F /  19.1 °C 29.89in /  1012.1hPa Calm     76% 0.00in /  0mm
21:44 74.3 °F /  23.5 °C 66.2 °F /  19 °C 29.89in /  1012.1hPa Calm     76% 0.00in /  0mm
21:49 74.1 °F /  23.4 °C 66.4 °F /  19.1 °C 29.89in /  1012.1hPa Calm     77% 0.00in /  0mm
21:54 74.0 °F /  23.3 °C 66.3 °F /  19.1 °C 29.89in /  1012.1hPa Calm     77% 0.00in /  0mm
21:59 73.8 °F /  23.2 °C 66.1 °F /  18.9 °C 29.89in /  1012.1hPa Calm     77% 0.00in /  0mm
22:04 73.7 °F /  23.2 °C 66.4 °F /  19.1 °C 29.89in /  1012.1hPa Calm     78% 0.00in /  0mm
22:09 73.7 °F /  23.2 °C 66.4 °F /  19.1 °C 29.90in /  1012.4hPa Calm     78% 0.00in /  0mm
22:14 73.5 °F /  23.1 °C 66.6 °F /  19.2 °C 29.90in /  1012.4hPa Calm     79% 0.00in /  0mm
22:19 73.4 °F /  23 °C 66.5 °F /  19.2 °C 29.90in /  1012.4hPa Calm     79% 0.00in /  0mm
22:24 73.0 °F /  22.8 °C 66.1 °F /  18.9 °C 29.90in /  1012.4hPa Calm     79% 0.00in /  0mm
22:29 72.7 °F /  22.6 °C 66.2 °F /  19 °C 29.90in /  1012.4hPa Calm     80% 0.00in /  0mm
22:34 72.7 °F /  22.6 °C 66.2 °F /  19 °C 29.90in /  1012.4hPa Calm     80% 0.00in /  0mm
22:39 72.7 °F /  22.6 °C 66.2 °F /  19 °C 29.90in /  1012.4hPa Calm     80% 0.00in /  0mm
22:44 72.6 °F /  22.6 °C 66.1 °F /  18.9 °C 29.90in /  1012.4hPa Calm     80% 0.00in /  0mm
22:49 72.4 °F /  22.4 °C 66.2 °F /  19 °C 29.90in /  1012.4hPa Calm     81% 0.00in /  0mm
22:54 72.2 °F /  22.3 °C 66.0 °F /  18.9 °C 29.90in /  1012.4hPa Calm     81% 0.00in /  0mm
22:59 72.1 °F /  22.3 °C 65.9 °F /  18.8 °C 29.90in /  1012.4hPa Calm     81% 0.00in /  0mm
23:04 72.0 °F /  22.2 °C 66.2 °F /  19 °C 29.90in /  1012.4hPa Calm     82% 0.00in /  0mm
23:09 71.7 °F /  22.1 °C 65.9 °F /  18.8 °C 29.90in /  1012.4hPa Calm     82% 0.00in /  0mm
23:14 71.5 °F /  21.9 °C 66.1 °F /  18.9 °C 29.90in /  1012.4hPa Calm     83% 0.00in /  0mm
23:19 71.3 °F /  21.8 °C 65.9 °F /  18.8 °C 29.91in /  1012.8hPa Calm     83% 0.00in /  0mm
23:24 71.2 °F /  21.8 °C 65.8 °F /  18.8 °C 29.90in /  1012.4hPa Calm     83% 0.00in /  0mm
23:29 71.1 °F /  21.7 °C 66.0 °F /  18.9 °C 29.91in /  1012.8hPa Calm     84% 0.00in /  0mm
23:34 71.0 °F /  21.7 °C 65.9 °F /  18.8 °C 29.91in /  1012.8hPa Calm     84% 0.00in /  0mm
23:39 71.2 °F /  21.8 °C 66.1 °F /  18.9 °C 29.91in /  1012.8hPa Calm     84% 0.00in /  0mm
23:44 71.2 °F /  21.8 °C 66.1 °F /  18.9 °C 29.91in /  1012.8hPa Calm     84% 0.00in /  0mm
23:49 71.1 °F /  21.7 °C 66.0 °F /  18.9 °C 29.91in /  1012.8hPa Calm     84% 0.00in /  0mm
23:54 70.8 °F /  21.6 °C 65.7 °F /  18.7 °C 29.91in /  1012.8hPa Calm     84% 0.00in /  0mm
23:59 70.6 °F /  21.4 °C 65.9 °F /  18.8 °C 29.91in /  1012.8hPa Calm     85% 0.00in /  0mm
Buffalo, New York, USA
Compliments of Weather Underground - 2.5 mb